Time;durP1;ratioP1;P1;durP2;ratioP2;P2;SDS_P1;SDS_P2;PMS_P1;PMS_P2;Temp;Humidity;BMP_temperature;BMP_pressure;BME280_temperature;BME280_humidity;BME280_pressure;Samples;Min_cycle;Max_cycle;Signal;HPM_P1;HPM_P2
2023/08/07 00:01:10;;;;;;;9.23;3.53;;;24.50;99.90;;;;;;5059901;28;20416;-70
2023/08/07 00:03:37;;;;;;;8.30;3.40;;;24.50;99.90;;;;;;5062352;28;20787;-70
2023/08/07 00:06:03;;;;;;;7.68;3.65;;;24.50;99.90;;;;;;5056048;28;20423;-70
2023/08/07 00:08:33;;;;;;;10.40;3.28;;;24.50;99.90;;;;;;5060920;28;20546;-70
2023/08/07 00:11:10;;;;;;;8.68;3.80;;;24.50;99.90;;;;;;5068806;28;20781;-70
2023/08/07 00:13:37;;;;;;;8.05;3.70;;;24.50;99.90;;;;;;5056473;28;20421;-71
2023/08/07 00:16:03;;;;;;;8.50;3.58;;;24.50;99.90;;;;;;5054014;28;20820;-71
2023/08/07 00:18:30;;;;;;;7.13;3.17;;;24.50;99.90;;;;;;5060746;28;20977;-71
2023/08/07 00:20:56;;;;;;;6.60;3.28;;;24.50;99.90;;;;;;5057207;28;20795;-71
2023/08/07 00:23:24;;;;;;;7.27;3.50;;;24.50;99.90;;;;;;5051911;28;20413;-71
2023/08/07 00:25:50;;;;;;;11.43;3.67;;;24.60;99.90;;;;;;5054641;28;21012;-71
2023/08/07 00:28:19;;;;;;;6.80;3.50;;;24.60;99.90;;;;;;5048183;28;20470;-71
2023/08/07 00:30:45;;;;;;;9.68;4.13;;;24.60;99.90;;;;;;5073343;28;21122;-70
2023/08/07 00:33:11;;;;;;;9.15;4.20;;;24.70;99.90;;;;;;5037643;28;20415;-71
2023/08/07 00:35:38;;;;;;;8.70;4.32;;;24.70;99.90;;;;;;5055825;28;20474;-72
2023/08/07 00:38:04;;;;;;;12.18;4.50;;;24.60;99.90;;;;;;5059600;28;20578;-71
2023/08/07 00:40:39;;;;;;;9.57;4.28;;;24.60;99.90;;;;;;5075870;28;20408;-71
2023/08/07 00:43:06;;;;;;;10.65;4.22;;;24.60;99.90;;;;;;5054646;28;20415;-69
2023/08/07 00:45:42;;;;;;;9.95;4.07;;;24.60;99.90;;;;;;5043105;28;20464;-69
2023/08/07 00:48:09;;;;;;;9.55;4.50;;;24.60;99.90;;;;;;5054900;28;20419;-69
2023/08/07 00:50:36;;;;;;;10.40;4.40;;;24.60;99.90;;;;;;5061100;28;20511;-70
2023/08/07 00:53:03;;;;;;;9.48;4.20;;;24.60;99.90;;;;;;5053210;28;20421;-71
2023/08/07 00:55:30;;;;;;;10.95;4.43;;;24.60;99.90;;;;;;5087321;28;20426;-69
2023/08/07 00:57:59;;;;;;;10.23;4.40;;;24.70;99.90;;;;;;5055800;28;20444;-69
2023/08/07 01:00:30;;;;;;;12.48;4.78;;;24.60;99.90;;;;;;5054708;28;20500;-69
2023/08/07 01:02:57;;;;;;;6.07;3.72;;;24.70;99.90;;;;;;5057370;28;20444;-69
2023/08/07 01:05:25;;;;;;;9.50;4.28;;;24.70;99.90;;;;;;5059122;28;20941;-70
2023/08/07 01:07:55;;;;;;;8.57;4.10;;;24.60;99.90;;;;;;5058097;28;20440;-70
2023/08/07 01:10:49;;;;;;;7.95;3.90;;;24.60;99.90;;;;;;5060260;28;20524;-71
2023/08/07 01:13:34;;;;;;;7.38;3.85;;;24.70;99.90;;;;;;5059185;28;21107;-71
2023/08/07 01:16:15;;;;;;;8.40;4.20;;;24.60;99.90;;;;;;5054940;28;20875;-71
2023/08/07 01:18:42;;;;;;;7.57;3.90;;;24.50;99.90;;;;;;5061018;28;20851;-71
2023/08/07 01:21:19;;;;;;;8.10;3.78;;;24.50;99.90;;;;;;5054304;28;20526;-71
2023/08/07 01:23:47;;;;;;;9.48;4.28;;;24.50;99.90;;;;;;5053814;28;20423;-71
2023/08/07 01:26:19;;;;;;;7.70;3.75;;;24.20;99.90;;;;;;5055198;28;20415;-71
2023/08/07 01:29:26;;;;;;;8.00;3.80;;;24.20;99.90;;;;;;5060025;28;20982;-71
2023/08/07 01:31:56;;;;;;;5.97;3.63;;;24.30;99.90;;;;;;5054038;28;20425;-71
2023/08/07 01:34:25;;;;;;;6.57;3.53;;;24.30;99.90;;;;;;5060327;28;20426;-71
2023/08/07 01:36:55;;;;;;;9.47;3.93;;;24.40;99.90;;;;;;5052985;28;20427;-70
2023/08/07 01:39:23;;;;;;;6.38;3.40;;;24.30;99.90;;;;;;5058940;28;20538;-70
2023/08/07 01:41:50;;;;;;;10.67;3.70;;;24.40;99.90;;;;;;5055072;28;20407;-70
2023/08/07 01:44:16;;;;;;;6.93;3.87;;;24.40;99.90;;;;;;5058674;28;20774;-69
2023/08/07 01:46:43;;;;;;;10.10;3.60;;;24.40;99.90;;;;;;5039988;28;21223;-69
2023/08/07 01:49:09;;;;;;;6.18;3.20;;;24.20;99.90;;;;;;5058089;28;20494;-70
2023/08/07 01:51:35;;;;;;;7.65;3.50;;;24.10;99.90;;;;;;5056125;28;20756;-69
2023/08/07 01:54:01;;;;;;;8.18;3.78;;;24.10;99.90;;;;;;5049394;28;20953;-69
2023/08/07 01:56:27;;;;;;;8.35;3.50;;;24.10;99.90;;;;;;5054458;28;20507;-70
2023/08/07 01:58:54;;;;;;;9.40;3.30;;;23.90;99.90;;;;;;5056232;28;20489;-69
2023/08/07 02:01:20;;;;;;;7.65;3.45;;;24.00;99.90;;;;;;5058554;28;20411;-69
2023/08/07 02:03:46;;;;;;;6.75;3.42;;;24.10;99.90;;;;;;5055242;28;20858;-69
2023/08/07 02:06:12;;;;;;;7.90;3.30;;;24.10;99.90;;;;;;5058873;28;20787;-69
2023/08/07 02:08:38;;;;;;;7.40;3.55;;;24.20;99.90;;;;;;5056675;28;20948;-69
2023/08/07 02:11:05;;;;;;;8.00;3.40;;;24.20;99.90;;;;;;5053956;28;20963;-69
2023/08/07 02:13:31;;;;;;;5.38;3.30;;;24.20;99.90;;;;;;5057787;28;20405;-69
2023/08/07 02:15:57;;;;;;;6.90;3.33;;;24.10;99.90;;;;;;5053240;28;20439;-69
2023/08/07 02:18:24;;;;;;;6.50;3.47;;;24.10;99.90;;;;;;5056946;28;21145;-69
2023/08/07 02:20:50;;;;;;;8.27;3.75;;;24.20;99.90;;;;;;5058545;28;20987;-69
2023/08/07 02:23:19;;;;;;;8.45;3.78;;;24.10;99.90;;;;;;5059053;28;20793;-69
2023/08/07 02:25:45;;;;;;;5.60;3.40;;;23.90;99.90;;;;;;5053743;28;21020;-69
2023/08/07 02:28:11;;;;;;;9.57;3.80;;;23.90;99.90;;;;;;5056745;28;20424;-69
2023/08/07 02:30:38;;;;;;;9.20;3.53;;;23.90;99.90;;;;;;5056585;28;20475;-69
2023/08/07 02:33:05;;;;;;;7.13;3.60;;;24.00;99.90;;;;;;5050993;28;20413;-69
2023/08/07 02:35:31;;;;;;;8.83;3.83;;;24.00;99.90;;;;;;5057823;28;20407;-70
2023/08/07 02:37:57;;;;;;;6.70;3.70;;;23.80;99.90;;;;;;5062068;28;20405;-70
2023/08/07 02:40:23;;;;;;;9.75;3.90;;;23.80;99.90;;;;;;5053302;28;20425;-70
2023/08/07 02:42:50;;;;;;;9.18;4.13;;;23.90;99.90;;;;;;5060719;28;20426;-70
2023/08/07 02:45:16;;;;;;;7.25;3.90;;;23.90;99.90;;;;;;5061881;28;20515;-70
2023/08/07 02:47:42;;;;;;;9.40;3.95;;;23.80;99.90;;;;;;5062680;28;20436;-70
2023/08/07 02:50:09;;;;;;;9.73;4.45;;;23.80;99.90;;;;;;5050799;28;20476;-70
2023/08/07 02:52:35;;;;;;;10.27;4.07;;;23.90;99.90;;;;;;5057878;28;20413;-70
2023/08/07 02:55:02;;;;;;;7.80;3.65;;;23.90;99.90;;;;;;5064694;28;20403;-70
2023/08/07 02:57:28;;;;;;;8.25;4.13;;;23.90;99.90;;;;;;5062755;28;20413;-70
2023/08/07 02:59:55;;;;;;;7.97;3.80;;;23.80;99.90;;;;;;5044540;28;21377;-70
2023/08/07 03:02:21;;;;;;;7.97;3.90;;;23.80;99.90;;;;;;5063492;28;21178;-70
2023/08/07 03:04:47;;;;;;;9.77;4.40;;;23.80;99.90;;;;;;5062288;28;20498;-70
2023/08/07 03:07:14;;;;;;;11.18;4.50;;;23.90;99.90;;;;;;5067308;28;20411;-70
2023/08/07 03:09:40;;;;;;;7.90;3.80;;;23.90;99.90;;;;;;5065414;28;20399;-70
2023/08/07 03:12:06;;;;;;;8.07;3.83;;;24.00;99.90;;;;;;5059319;28;20494;-70
2023/08/07 03:14:33;;;;;;;7.37;3.80;;;24.00;99.90;;;;;;5061229;28;20419;-70
2023/08/07 03:16:59;;;;;;;9.02;4.38;;;24.00;99.90;;;;;;5061224;28;20479;-70
2023/08/07 03:19:25;;;;;;;8.85;3.88;;;24.00;99.90;;;;;;5058545;28;20397;-70
2023/08/07 03:21:51;;;;;;;8.90;3.85;;;24.00;99.90;;;;;;5061650;28;20402;-70
2023/08/07 03:24:18;;;;;;;7.18;3.70;;;24.00;99.90;;;;;;5061463;28;20422;-70
2023/08/07 03:26:44;;;;;;;7.88;3.65;;;23.90;99.90;;;;;;5066758;28;20421;-70
2023/08/07 03:29:10;;;;;;;7.10;3.70;;;23.90;99.90;;;;;;5061803;28;20424;-69
2023/08/07 03:31:36;;;;;;;7.13;3.57;;;23.90;99.90;;;;;;5064517;28;20756;-69
2023/08/07 03:34:02;;;;;;;9.07;3.70;;;23.90;99.90;;;;;;5063794;28;20502;-69
2023/08/07 03:36:29;;;;;;;10.15;4.07;;;23.90;99.90;;;;;;5068973;28;20916;-69
2023/08/07 03:38:55;;;;;;;7.45;3.25;;;23.90;99.90;;;;;;5066141;28;20979;-69
2023/08/07 03:41:21;;;;;;;8.13;3.78;;;23.90;99.90;;;;;;5064657;28;20953;-69
2023/08/07 03:43:47;;;;;;;9.73;3.95;;;23.90;99.90;;;;;;5061102;28;20409;-69
2023/08/07 03:46:13;;;;;;;9.75;4.30;;;23.80;99.90;;;;;;5078976;28;21182;-70
2023/08/07 03:48:39;;;;;;;7.82;3.75;;;23.80;99.90;;;;;;5061086;28;20478;-70
2023/08/07 03:51:10;;;;;;;9.05;3.78;;;23.80;99.90;;;;;;5059707;28;20500;-70
2023/08/07 03:53:37;;;;;;;8.05;3.80;;;23.80;99.90;;;;;;5056867;28;20566;-70
2023/08/07 03:56:04;;;;;;;6.93;3.60;;;23.90;99.90;;;;;;5061635;28;20407;-70
2023/08/07 03:58:30;;;;;;;8.35;3.70;;;23.90;99.90;;;;;;5061540;28;20822;-70
2023/08/07 04:00:57;;;;;;;7.93;3.88;;;24.00;99.90;;;;;;5058560;28;20427;-70
2023/08/07 04:03:23;;;;;;;8.35;3.35;;;24.00;99.90;;;;;;5052521;28;20882;-70
2023/08/07 04:05:54;;;;;;;6.95;3.53;;;24.00;99.90;;;;;;5057613;28;20411;-70
2023/08/07 04:08:22;;;;;;;12.77;4.15;;;24.00;99.90;;;;;;5051852;28;20416;-70
2023/08/07 04:11:05;;;;;;;8.30;3.70;;;24.00;99.90;;;;;;5052218;28;20496;-70
2023/08/07 04:13:32;;;;;;;8.25;3.75;;;24.00;99.90;;;;;;5055913;28;20494;-70
2023/08/07 04:16:00;;;;;;;8.68;3.67;;;24.10;99.90;;;;;;5059737;28;20403;-70
2023/08/07 04:18:26;;;;;;;8.45;3.50;;;24.10;99.90;;;;;;5073723;28;20417;-70
2023/08/07 04:20:57;;;;;;;9.80;3.72;;;24.10;99.90;;;;;;5071460;28;20411;-70
2023/08/07 04:23:24;;;;;;;7.23;3.70;;;24.10;99.90;;;;;;5067209;28;20508;-70
2023/08/07 04:25:54;;;;;;;7.20;3.63;;;24.10;99.90;;;;;;5040259;28;20411;-70
2023/08/07 04:28:21;;;;;;;6.43;3.35;;;24.10;99.90;;;;;;5064376;28;20411;-70
2023/08/07 04:30:51;;;;;;;9.40;3.58;;;24.10;99.90;;;;;;5056997;28;20416;-70
2023/08/07 04:33:17;;;;;;;7.28;3.40;;;24.10;99.90;;;;;;5055727;28;20425;-70
2023/08/07 04:35:43;;;;;;;9.10;3.53;;;24.20;99.90;;;;;;5060371;28;20411;-70
2023/08/07 04:38:10;;;;;;;9.45;3.80;;;24.20;99.90;;;;;;5059396;28;20969;-69
2023/08/07 04:40:36;;;;;;;8.32;3.65;;;24.20;99.90;;;;;;5059554;28;20908;-69
2023/08/07 04:43:02;;;;;;;7.90;3.60;;;24.30;99.90;;;;;;5055051;28;20415;-69
2023/08/07 04:45:28;;;;;;;8.10;3.70;;;24.30;99.90;;;;;;5074749;28;20437;-70
2023/08/07 04:47:55;;;;;;;9.55;3.72;;;24.30;99.90;;;;;;5060250;28;20510;-70
2023/08/07 04:50:21;;;;;;;6.75;3.40;;;24.40;99.90;;;;;;5059589;28;20808;-70
2023/08/07 04:52:47;;;;;;;8.30;3.50;;;24.30;99.90;;;;;;5041075;28;20437;-70
2023/08/07 04:55:13;;;;;;;6.50;3.60;;;24.40;99.90;;;;;;5060570;28;20417;-69
2023/08/07 04:57:39;;;;;;;8.50;3.60;;;24.50;99.90;;;;;;5059713;28;20403;-69
2023/08/07 05:00:07;;;;;;;9.70;4.13;;;24.50;99.90;;;;;;5057294;28;20899;-69
2023/08/07 05:02:34;;;;;;;10.13;3.80;;;24.50;99.90;;;;;;5061198;28;21050;-69
2023/08/07 05:05:00;;;;;;;8.63;3.78;;;24.60;99.90;;;;;;5038517;28;20409;-70
2023/08/07 05:07:26;;;;;;;7.72;3.75;;;24.60;99.90;;;;;;5058086;28;20422;-70
2023/08/07 05:09:53;;;;;;;9.45;3.67;;;24.60;99.90;;;;;;5054663;28;20404;-70
2023/08/07 05:12:19;;;;;;;8.93;3.63;;;24.60;99.90;;;;;;5058761;28;20409;-69
2023/08/07 05:14:45;;;;;;;11.43;3.90;;;24.70;99.90;;;;;;5059155;28;20536;-69
2023/08/07 05:17:12;;;;;;;8.07;3.80;;;24.70;99.90;;;;;;5038257;28;20423;-69
2023/08/07 05:19:39;;;;;;;9.10;3.57;;;24.70;99.90;;;;;;5061235;28;20419;-69
2023/08/07 05:22:05;;;;;;;10.10;3.87;;;24.80;99.90;;;;;;5057194;28;20985;-69
2023/08/07 05:24:38;;;;;;;8.27;3.30;;;24.80;99.90;;;;;;5057426;28;20462;-70
2023/08/07 05:27:08;;;;;;;9.50;3.70;;;24.90;99.90;;;;;;5043851;28;20417;-69
2023/08/07 05:29:42;;;;;;;9.57;3.70;;;24.90;99.90;;;;;;5040385;28;20404;-69
2023/08/07 05:32:10;;;;;;;9.55;3.50;;;24.90;99.90;;;;;;5058639;28;20421;-70
2023/08/07 05:34:38;;;;;;;9.73;4.03;;;24.90;99.90;;;;;;5041412;28;20438;-70
2023/08/07 05:37:06;;;;;;;8.55;3.58;;;25.00;99.90;;;;;;5054942;28;20428;-70
2023/08/07 05:39:33;;;;;;;8.27;3.53;;;25.00;99.90;;;;;;5056524;28;20912;-70
2023/08/07 05:41:59;;;;;;;7.82;3.20;;;25.00;99.90;;;;;;5061048;28;20938;-70
2023/08/07 05:44:26;;;;;;;9.80;3.80;;;25.10;99.90;;;;;;5056527;28;20411;-69
2023/08/07 05:46:52;;;;;;;7.20;3.35;;;25.10;99.90;;;;;;5070445;28;20908;-69
2023/08/07 05:49:19;;;;;;;10.45;3.65;;;25.20;99.90;;;;;;5059649;28;20403;-69
2023/08/07 05:51:45;;;;;;;8.63;3.55;;;25.20;99.90;;;;;;5053806;28;20818;-70
2023/08/07 05:54:11;;;;;;;6.95;3.10;;;25.20;99.90;;;;;;5044307;28;20439;-70
2023/08/07 05:56:38;;;;;;;8.30;3.50;;;25.30;99.90;;;;;;5056222;28;20434;-70
2023/08/07 05:59:04;;;;;;;10.65;3.65;;;25.30;99.90;;;;;;5056895;28;20417;-70
2023/08/07 06:01:31;;;;;;;9.30;3.50;;;25.40;99.90;;;;;;5070560;28;20541;-69
2023/08/07 06:03:58;;;;;;;9.20;3.57;;;25.40;99.90;;;;;;5056686;28;20475;-69
2023/08/07 06:06:27;;;;;;;8.07;3.30;;;25.50;99.90;;;;;;5041351;28;20518;-69
2023/08/07 06:08:57;;;;;;;8.07;3.10;;;25.50;99.90;;;;;;5050426;28;20472;-69
2023/08/07 06:11:23;;;;;;;8.80;3.60;;;25.50;99.90;;;;;;5058078;28;20409;-70
2023/08/07 06:13:49;;;;;;;9.27;3.20;;;25.60;99.90;;;;;;5054511;28;20420;-70
2023/08/07 06:16:16;;;;;;;6.97;3.15;;;25.60;99.90;;;;;;5058736;28;20468;-70
2023/08/07 06:18:42;;;;;;;8.93;3.13;;;25.70;99.90;;;;;;5058700;28;20782;-70
2023/08/07 06:21:10;;;;;;;8.45;3.40;;;25.70;99.90;;;;;;5058827;28;20415;-70
2023/08/07 06:23:38;;;;;;;8.80;3.33;;;25.80;99.90;;;;;;5051383;28;20435;-70
2023/08/07 06:26:04;;;;;;;8.82;3.00;;;25.80;99.90;;;;;;5058456;28;20428;-70
2023/08/07 06:28:33;;;;;;;8.05;3.22;;;25.90;99.90;;;;;;5056220;28;20443;-70
2023/08/07 06:31:06;;;;;;;8.20;3.30;;;25.90;99.90;;;;;;5056542;28;20501;-70
2023/08/07 06:33:35;;;;;;;7.80;2.90;;;26.00;99.90;;;;;;5051579;28;20411;-70
2023/08/07 06:36:03;;;;;;;7.70;3.30;;;26.00;99.90;;;;;;5050852;28;20403;-70
2023/08/07 06:38:31;;;;;;;5.93;2.72;;;26.10;99.90;;;;;;5056984;28;20408;-70
2023/08/07 06:40:57;;;;;;;7.90;2.75;;;26.10;99.90;;;;;;5054802;28;20431;-70
2023/08/07 06:43:23;;;;;;;6.20;2.85;;;26.20;99.90;;;;;;5057002;28;20392;-70
2023/08/07 06:45:51;;;;;;;8.93;3.00;;;26.30;99.90;;;;;;5058061;28;20407;-70
2023/08/07 06:48:18;;;;;;;6.47;2.90;;;26.30;99.90;;;;;;5050780;28;20431;-73
2023/08/07 06:50:47;;;;;;;7.63;2.70;;;26.30;99.90;;;;;;5049644;28;20579;-72
2023/08/07 06:53:17;;;;;;;7.25;3.10;;;26.40;99.90;;;;;;5053860;28;20559;-72
2023/08/07 06:55:44;;;;;;;9.07;3.10;;;26.50;99.90;;;;;;5047007;28;20414;-72
2023/08/07 06:58:10;;;;;;;9.82;3.40;;;26.50;99.90;;;;;;5070558;28;21008;-72
2023/08/07 07:00:37;;;;;;;9.80;3.20;;;26.60;99.90;;;;;;5051437;28;21009;-72
2023/08/07 07:03:04;;;;;;;8.73;3.10;;;26.60;99.90;;;;;;5057914;28;20505;-72
2023/08/07 07:05:32;;;;;;;10.23;3.10;;;26.70;99.90;;;;;;5050724;28;20845;-72
2023/08/07 07:07:59;;;;;;;10.85;3.15;;;26.70;99.90;;;;;;5054767;28;20417;-72
2023/08/07 07:10:25;;;;;;;6.03;2.95;;;26.80;99.90;;;;;;5056606;28;20560;-72
2023/08/07 07:12:52;;;;;;;7.47;2.95;;;26.90;99.90;;;;;;5069075;28;21272;-72
2023/08/07 07:15:18;;;;;;;7.30;2.80;;;26.90;99.90;;;;;;5061144;28;20440;-72
2023/08/07 07:17:45;;;;;;;7.80;2.80;;;27.00;99.90;;;;;;5055229;28;20419;-72
2023/08/07 07:20:11;;;;;;;7.75;2.97;;;27.10;99.90;;;;;;5066445;28;20401;-72
2023/08/07 07:22:37;;;;;;;9.75;3.15;;;27.20;99.90;;;;;;5045390;28;20433;-72
2023/08/07 07:25:05;;;;;;;8.20;3.35;;;27.30;99.90;;;;;;5054398;28;20569;-72
2023/08/07 07:27:31;;;;;;;10.38;3.35;;;27.40;99.90;;;;;;5073988;28;20411;-72
2023/08/07 07:29:57;;;;;;;8.13;3.40;;;27.50;99.90;;;;;;5075458;28;20400;-72
2023/08/07 07:32:25;;;;;;;10.70;3.50;;;27.50;99.90;;;;;;5045877;28;20536;-72
2023/08/07 07:34:52;;;;;;;8.90;3.25;;;27.60;99.90;;;;;;5057407;28;20422;-72
2023/08/07 07:37:18;;;;;;;8.68;3.40;;;27.60;99.90;;;;;;5058128;28;20447;-72
2023/08/07 07:39:44;;;;;;;10.15;3.60;;;27.70;99.90;;;;;;5044829;28;20429;-72
2023/08/07 07:42:11;;;;;;;10.43;3.75;;;27.90;99.90;;;;;;5072232;28;20414;-72
2023/08/07 07:44:38;;;;;;;8.85;3.65;;;27.90;99.90;;;;;;5055355;28;20409;-72
2023/08/07 07:47:05;;;;;;;8.80;3.67;;;28.00;99.90;;;;;;5060987;28;20409;-72
2023/08/07 07:49:33;;;;;;;8.00;3.23;;;28.10;99.90;;;;;;5056518;28;20418;-72
2023/08/07 07:52:00;;;;;;;9.63;3.65;;;28.20;99.90;;;;;;5056757;28;20421;-72
2023/08/07 07:54:29;;;;;;;10.70;3.80;;;28.20;99.90;;;;;;5057449;28;20415;-72
2023/08/07 07:56:55;;;;;;;12.00;3.70;;;28.30;99.90;;;;;;5066589;28;20456;-72
2023/08/07 07:59:21;;;;;;;9.40;3.95;;;28.30;99.90;;;;;;5057589;28;20420;-72
2023/08/07 08:01:48;;;;;;;11.80;3.60;;;28.40;99.90;;;;;;5053840;28;21094;-72
2023/08/07 08:04:14;;;;;;;11.95;3.83;;;28.50;99.90;;;;;;5050746;28;20887;-72
2023/08/07 08:06:41;;;;;;;12.43;3.75;;;28.50;99.90;;;;;;5055547;28;20996;-72
2023/08/07 08:09:09;;;;;;;11.80;3.92;;;28.50;99.90;;;;;;5054184;28;20726;-72
2023/08/07 08:11:35;;;;;;;12.38;3.63;;;28.60;99.90;;;;;;5059312;28;20438;-72
2023/08/07 08:14:02;;;;;;;11.15;3.75;;;28.60;99.90;;;;;;5057798;28;21147;-72
2023/08/07 08:16:28;;;;;;;12.57;3.78;;;28.70;99.90;;;;;;5058720;28;20420;-72
2023/08/07 08:18:54;;;;;;;11.13;3.75;;;28.70;99.90;;;;;;5051062;28;20815;-72
2023/08/07 08:21:20;;;;;;;15.35;3.85;;;28.90;99.90;;;;;;5055436;28;20411;-72
2023/08/07 08:23:47;;;;;;;11.00;3.63;;;28.90;99.90;;;;;;5054701;28;20493;-72
2023/08/07 08:26:13;;;;;;;13.98;3.85;;;29.00;99.90;;;;;;5055892;28;20412;-72
2023/08/07 08:28:39;;;;;;;13.15;3.92;;;29.00;99.90;;;;;;5055711;28;20412;-72
2023/08/07 08:31:06;;;;;;;9.95;3.42;;;29.10;99.90;;;;;;5056199;28;20413;-72
2023/08/07 08:33:32;;;;;;;11.60;4.03;;;29.20;99.90;;;;;;5058390;28;20403;-72
2023/08/07 08:36:00;;;;;;;9.57;3.42;;;29.20;99.90;;;;;;5058593;28;20423;-72
2023/08/07 08:38:32;;;;;;;10.00;3.50;;;29.30;99.90;;;;;;5054861;28;21114;-72
2023/08/07 08:41:03;;;;;;;12.52;3.80;;;29.40;99.90;;;;;;5052330;28;20415;-72
2023/08/07 08:43:38;;;;;;;11.23;3.38;;;29.50;99.90;;;;;;5053759;28;20427;-72
2023/08/07 08:46:09;;;;;;;10.48;3.53;;;29.50;99.90;;;;;;5056379;28;20430;-72
2023/08/07 08:48:38;;;;;;;11.30;3.42;;;29.60;99.90;;;;;;5059288;28;20462;-72
2023/08/07 08:51:07;;;;;;;10.55;3.80;;;29.70;99.90;;;;;;5059156;28;20528;-72
2023/08/07 08:53:35;;;;;;;9.95;3.33;;;29.70;99.90;;;;;;5056200;28;20450;-72
2023/08/07 08:56:02;;;;;;;12.57;3.63;;;29.80;99.90;;;;;;5057645;28;20468;-72
2023/08/07 08:58:29;;;;;;;10.75;3.45;;;29.90;99.90;;;;;;5066434;28;21183;-72
2023/08/07 09:00:55;;;;;;;10.00;3.40;;;30.10;99.90;;;;;;5070314;28;20482;-72
2023/08/07 09:03:23;;;;;;;11.27;4.00;;;30.20;99.90;;;;;;5055633;28;20440;-72
2023/08/07 09:05:54;;;;;;;8.73;3.53;;;30.20;99.90;;;;;;5050144;28;20973;-72
2023/08/07 09:08:24;;;;;;;12.95;3.58;;;30.30;99.90;;;;;;5054140;28;20422;-71
2023/08/07 09:10:52;;;;;;;12.50;3.72;;;30.30;99.90;;;;;;5057526;28;21003;-72
2023/08/07 09:13:24;;;;;;;10.80;3.40;;;30.40;99.90;;;;;;5069502;28;22126;-72
2023/08/07 09:15:54;;;;;;;15.70;3.53;;;30.50;99.90;;;;;;5058755;28;20435;-72
2023/08/07 09:18:21;;;;;;;15.23;3.80;;;30.50;99.90;;;;;;5069798;28;20417;-72
2023/08/07 09:20:49;;;;;;;12.43;4.00;;;30.60;99.90;;;;;;5037516;28;20414;-71
2023/08/07 09:23:19;;;;;;;12.23;3.73;;;30.60;99.90;;;;;;5068546;28;20853;-72
2023/08/07 09:25:45;;;;;;;14.98;4.00;;;30.70;99.90;;;;;;5054853;28;20407;-72
2023/08/07 09:28:13;;;;;;;14.85;3.90;;;30.70;99.90;;;;;;5039002;28;20428;-72
2023/08/07 09:30:43;;;;;;;17.35;3.80;;;30.70;99.90;;;;;;5055007;28;20489;-72
2023/08/07 09:33:10;;;;;;;14.00;3.50;;;30.60;99.90;;;;;;5054914;28;20442;-70
2023/08/07 09:35:36;;;;;;;19.45;4.25;;;30.70;99.90;;;;;;5060141;28;20961;-70
2023/08/07 09:38:03;;;;;;;15.15;3.70;;;30.70;99.90;;;;;;5055919;28;21069;-71
2023/08/07 09:40:30;;;;;;;14.55;3.97;;;30.80;99.90;;;;;;5074838;28;20490;-70
2023/08/07 09:42:57;;;;;;;13.63;3.67;;;30.80;99.90;;;;;;5040716;28;20414;-70
2023/08/07 09:57:25;;;;;;;13.20;3.72;;;30.70;99.90;;;;;;5123079;27;20820;-74
2023/08/07 09:59:52;;;;;;;15.88;3.63;;;31.10;99.90;;;;;;5106126;27;20499;-74
2023/08/07 10:02:20;;;;;;;12.93;3.58;;;31.20;99.90;;;;;;5109326;28;20419;-74
2023/08/07 10:04:48;;;;;;;15.80;4.20;;;31.30;99.90;;;;;;5116526;27;20419;-74
2023/08/07 10:07:15;;;;;;;15.10;3.38;;;31.40;99.90;;;;;;5135741;27;20959;-74
2023/08/07 10:09:44;;;;;;;9.52;3.35;;;31.40;99.90;;;;;;5141523;27;20435;-74
2023/08/07 10:12:11;;;;;;;16.02;3.63;;;31.50;99.90;;;;;;5138054;27;20412;-74
2023/08/07 10:14:38;;;;;;;16.10;3.70;;;31.50;99.90;;;;;;5111943;27;20445;-74
2023/08/07 10:17:05;;;;;;;12.48;3.45;;;31.60;99.90;;;;;;5113477;27;20428;-74
2023/08/07 10:19:32;;;;;;;13.57;3.67;;;31.70;99.90;;;;;;5113937;27;20409;-74
2023/08/07 10:21:59;;;;;;;9.10;3.30;;;31.70;99.90;;;;;;5115881;27;20405;-74
2023/08/07 10:24:27;;;;;;;10.52;3.30;;;31.70;99.90;;;;;;5110319;27;20427;-74
2023/08/07 10:26:55;;;;;;;14.07;3.55;;;31.70;99.90;;;;;;5118336;27;20518;-74
2023/08/07 10:29:25;;;;;;;12.85;3.63;;;31.70;99.90;;;;;;5106375;27;20420;-74
2023/08/07 10:31:56;;;;;;;12.32;3.42;;;31.70;99.90;;;;;;5101800;27;20415;-74
2023/08/07 10:34:23;;;;;;;13.05;3.60;;;31.70;99.90;;;;;;5112612;27;20415;-74
2023/08/07 10:36:50;;;;;;;11.00;3.60;;;31.60;99.90;;;;;;5114877;27;20802;-74
2023/08/07 10:39:16;;;;;;;13.55;3.72;;;31.50;99.90;;;;;;5113684;28;20419;-73
2023/08/07 10:41:47;;;;;;;12.63;3.60;;;31.60;99.90;;;;;;5116405;27;20542;-74
2023/08/07 10:44:22;;;;;;;12.57;3.53;;;31.70;99.90;;;;;;5094802;28;20420;-74
2023/08/07 10:46:55;;;;;;;10.98;3.60;;;31.70;99.90;;;;;;5107997;27;20442;-73
2023/08/07 10:49:38;;;;;;;12.90;3.70;;;31.60;99.90;;;;;;5113908;27;20445;-74
2023/08/07 10:52:14;;;;;;;13.80;3.77;;;31.60;99.90;;;;;;5115296;27;20952;-74
2023/08/07 10:54:51;;;;;;;11.43;3.30;;;31.60;99.90;;;;;;5116029;28;20493;-74
2023/08/07 10:57:19;;;;;;;11.00;3.20;;;31.70;99.90;;;;;;5099424;27;20416;-74
2023/08/07 11:00:07;;;;;;;11.55;3.17;;;31.60;99.90;;;;;;5093233;28;20420;-74
2023/08/07 11:02:40;;;;;;;11.05;3.35;;;31.70;99.90;;;;;;5097686;27;20408;-74
2023/08/07 11:05:07;;;;;;;12.38;3.00;;;31.70;99.90;;;;;;5098035;27;21090;-73
2023/08/07 11:07:34;;;;;;;9.57;3.30;;;31.60;99.90;;;;;;5099174;28;20404;-73
2023/08/07 11:10:00;;;;;;;13.30;3.53;;;31.60;99.90;;;;;;5080212;28;20844;-73
2023/08/07 11:12:29;;;;;;;9.57;3.00;;;31.60;99.90;;;;;;5128433;27;20397;-73
2023/08/07 11:14:58;;;;;;;9.07;3.40;;;31.60;99.90;;;;;;5098951;27;20427;-73
2023/08/07 11:17:26;;;;;;;11.07;3.45;;;31.50;99.90;;;;;;5079637;28;20502;-74
2023/08/07 11:19:55;;;;;;;9.25;3.25;;;31.50;99.90;;;;;;5109327;27;20882;-74
2023/08/07 11:22:22;;;;;;;10.97;3.37;;;31.50;99.90;;;;;;5097594;28;20405;-74
2023/08/07 11:24:49;;;;;;;8.95;2.97;;;31.50;99.90;;;;;;5101635;27;20412;-74
2023/08/07 11:27:15;;;;;;;13.20;3.53;;;31.50;99.90;;;;;;5092706;27;20433;-74
2023/08/07 11:29:41;;;;;;;11.23;3.25;;;31.50;99.90;;;;;;5132232;27;20420;-74
2023/08/07 11:32:09;;;;;;;8.82;3.17;;;31.40;99.90;;;;;;5083631;27;20408;-74
2023/08/07 11:34:36;;;;;;;9.77;3.30;;;31.40;99.90;;;;;;5110330;27;20421;-74
2023/08/07 11:37:03;;;;;;;10.43;3.05;;;31.40;99.90;;;;;;5098126;27;20469;-74
2023/08/07 11:39:29;;;;;;;11.95;2.83;;;31.50;99.90;;;;;;5072326;28;20422;-74
2023/08/07 11:41:56;;;;;;;8.15;2.67;;;31.40;99.90;;;;;;5098374;28;20418;-74
2023/08/07 11:44:23;;;;;;;10.13;3.22;;;31.40;99.90;;;;;;5100622;28;20956;-74
2023/08/07 11:46:51;;;;;;;8.18;3.17;;;31.40;99.90;;;;;;5098136;28;20917;-74
2023/08/07 11:49:19;;;;;;;10.10;3.10;;;31.50;99.90;;;;;;5112414;27;20410;-74
2023/08/07 11:51:46;;;;;;;9.60;2.77;;;31.50;99.90;;;;;;5086750;28;20453;-74
2023/08/07 11:54:16;;;;;;;11.30;3.17;;;31.50;99.90;;;;;;5082360;28;20409;-74
2023/08/07 11:56:45;;;;;;;11.57;3.00;;;31.40;99.90;;;;;;5091363;28;20440;-74
2023/08/07 11:59:11;;;;;;;12.35;2.97;;;31.50;99.90;;;;;;5105213;28;21134;-74
2023/08/07 12:01:40;;;;;;;12.45;3.13;;;31.40;99.90;;;;;;5107333;27;20412;-74
2023/08/07 12:04:07;;;;;;;10.13;3.17;;;31.30;99.90;;;;;;5078863;28;21290;-74
2023/08/07 12:06:35;;;;;;;10.88;3.15;;;31.20;99.90;;;;;;5086091;28;20748;-74
2023/08/07 12:09:02;;;;;;;11.83;3.13;;;31.00;99.90;;;;;;5096778;28;20409;-74
2023/08/07 12:11:32;;;;;;;12.50;3.37;;;31.00;99.90;;;;;;5086608;27;20546;-74
2023/08/07 12:14:03;;;;;;;13.10;3.13;;;31.00;99.90;;;;;;5102740;27;20413;-74
2023/08/07 12:16:34;;;;;;;10.48;3.35;;;31.00;99.90;;;;;;5100139;27;20482;-74
2023/08/07 12:19:03;;;;;;;11.00;3.05;;;31.00;99.90;;;;;;5103418;27;20503;-74
2023/08/07 12:21:33;;;;;;;11.88;3.20;;;30.90;99.90;;;;;;5080131;28;20416;-74
2023/08/07 12:23:59;;;;;;;14.98;3.72;;;30.80;99.90;;;;;;5095667;28;20772;-73
2023/08/07 12:26:26;;;;;;;9.32;3.10;;;30.70;99.90;;;;;;5093847;28;20415;-74
2023/08/07 12:28:54;;;;;;;13.38;3.70;;;30.60;99.90;;;;;;5098738;28;20415;-74
2023/08/07 12:31:20;;;;;;;15.43;3.80;;;30.60;99.90;;;;;;5132718;27;20408;-74
2023/08/07 12:33:47;;;;;;;11.77;3.35;;;30.50;99.90;;;;;;5121578;27;20414;-74
2023/08/07 12:36:14;;;;;;;14.25;3.40;;;30.60;99.90;;;;;;5095195;27;20417;-74
2023/08/07 12:38:41;;;;;;;13.27;3.30;;;30.40;99.90;;;;;;5096123;27;20413;-74
2023/08/07 12:41:08;;;;;;;13.90;3.60;;;30.40;99.90;;;;;;5097394;28;20512;-74
2023/08/07 12:43:34;;;;;;;11.52;3.13;;;30.20;99.90;;;;;;5098056;28;20464;-74
2023/08/07 12:46:01;;;;;;;11.98;3.40;;;30.20;99.90;;;;;;5097685;27;20477;-74
2023/08/07 12:48:28;;;;;;;10.93;3.10;;;30.20;99.90;;;;;;5072881;27;20461;-74
2023/08/07 12:50:54;;;;;;;12.00;3.60;;;30.20;99.90;;;;;;5100171;27;20408;-74
2023/08/07 12:53:21;;;;;;;12.30;3.28;;;30.20;99.90;;;;;;5079941;28;20410;-74
2023/08/07 12:55:47;;;;;;;13.40;3.53;;;30.30;99.90;;;;;;5094594;27;20424;-74
2023/08/07 12:58:13;;;;;;;11.18;3.20;;;30.30;99.90;;;;;;5076805;28;20417;-74